Weather at Ernesto Cortissoz International Airport

Public forecast

Using degrees Celsius for public forecast. Weather courtesy of forecast.io.

Current aviation weather report (METAR) for Ernesto Cortissoz International Airport

Retrieved 2021/04/12 16:00 UTC (25 minutes ago):

SKBQ 121600Z VRB03KT 9999 FEW010 BKN200 34/24 Q1008 NOSIG RMK A2979

Aviation forecast (TAF) for Ernesto Cortissoz International Airport

Retrieved 2021/04/12 12:00 UTC (4 hours ago):

TAF SKBQ 121030Z 1212/1312 VRB03KT 8000 SCT010 TEMPO 1216/1220 TSRA SCT015CB BKN080 BECMG 1218/1220 02010KT TX33/1218Z TN24/1209Z